createdAt,value
2023-02-07T00:01:33.845Z,69.61
2023-02-07T00:04:02.255Z,67.41
2023-02-07T00:06:35.682Z,68.48
2023-02-07T00:09:06.638Z,67.19
2023-02-07T00:11:36.122Z,66.64
2023-02-07T00:14:04.825Z,68.24
2023-02-07T00:16:32.942Z,69.02
2023-02-07T00:19:01.031Z,69.28
2023-02-07T00:21:30.345Z,67.86
2023-02-07T00:23:58.835Z,67.38
2023-02-07T00:26:27.544Z,67.84
2023-02-07T00:28:56.773Z,69.20
2023-02-07T00:31:29.921Z,67.39
2023-02-07T00:34:01.241Z,67.12
2023-02-07T00:36:31.445Z,67.88
2023-02-07T00:39:01.503Z,67.28
2023-02-07T00:41:30.611Z,67.88
2023-02-07T00:43:58.499Z,69.58
2023-02-07T00:46:27.044Z,70.56
2023-02-07T00:48:55.143Z,71.75
2023-02-07T00:51:25.802Z,69.87
2023-02-07T00:53:55.416Z,68.02
2023-02-07T00:56:27.869Z,68.17
2023-02-07T00:58:59.362Z,67.77
2023-02-07T01:01:27.973Z,67.12
2023-02-07T01:03:57.607Z,68.24
2023-02-07T01:06:26.379Z,68.24
2023-02-07T01:09:01.960Z,68.23
2023-02-07T01:11:30.665Z,68.07
2023-02-07T01:14:01.146Z,68.01
2023-02-07T01:16:36.345Z,67.51
2023-02-07T01:19:10.292Z,69.04
2023-02-07T01:21:38.561Z,68.86
2023-02-07T01:24:07.794Z,69.47
2023-02-07T01:26:37.485Z,69.95
2023-02-07T01:29:06.022Z,69.86
2023-02-07T01:31:34.741Z,69.54
2023-02-07T01:34:05.427Z,69.15
2023-02-07T01:36:33.754Z,69.12
2023-02-07T01:39:04.089Z,67.38
2023-02-07T01:41:35.285Z,67.53
2023-02-07T01:44:07.725Z,68.13
2023-02-07T01:46:36.395Z,69.90
2023-02-07T01:49:12.562Z,68.47
2023-02-07T01:51:47.884Z,71.46
2023-02-07T01:54:17.145Z,68.55
2023-02-07T01:56:51.204Z,68.33
2023-02-07T01:59:19.731Z,70.78
2023-02-07T02:01:48.097Z,69.42
2023-02-07T02:04:18.479Z,71.99
2023-02-07T02:06:46.633Z,70.99
2023-02-07T02:09:16.602Z,68.82
2023-02-07T02:12:03.677Z,67.99
2023-02-07T02:14:40.861Z,67.45
2023-02-07T02:17:36.133Z,67.58
2023-02-07T02:20:28.353Z,67.81
2023-02-07T02:23:03.690Z,72.73
2023-02-07T02:25:58.025Z,69.86
2023-02-07T02:28:25.935Z,68.87
2023-02-07T02:31:09.834Z,68.14
2023-02-07T02:33:56.991Z,67.17
2023-02-07T02:36:36.607Z,67.51
2023-02-07T02:39:22.256Z,68.00
2023-02-07T02:42:06.677Z,71.20
2023-02-07T02:45:00.967Z,70.49
2023-02-07T02:47:31.468Z,68.85
2023-02-07T02:49:59.576Z,68.68
2023-02-07T02:52:40.734Z,68.52
2023-02-07T02:55:40.151Z,69.03
2023-02-07T02:58:36.308Z,70.00
2023-02-07T03:01:29.633Z,68.01
2023-02-07T03:04:07.227Z,67.32
2023-02-07T03:06:58.789Z,67.88
2023-02-07T03:09:55.526Z,67.32
2023-02-07T03:12:54.802Z,66.23
2023-02-07T03:15:38.260Z,67.10
2023-02-07T03:18:14.977Z,69.00
2023-02-07T03:20:50.718Z,68.11
2023-02-07T03:23:21.205Z,67.70
2023-02-07T03:25:51.496Z,68.40
2023-02-07T03:28:21.191Z,69.66
2023-02-07T03:30:50.992Z,70.20
2023-02-07T03:33:20.094Z,69.25
2023-02-07T03:36:31.761Z,68.16
2023-02-07T03:38:59.957Z,68.75
2023-02-07T03:41:33.644Z,69.84
2023-02-07T03:44:07.190Z,68.80
2023-02-07T03:46:39.664Z,69.81
2023-02-07T03:49:11.763Z,68.93
2023-02-07T03:51:40.113Z,69.85
2023-02-07T03:54:08.126Z,67.75
2023-02-07T03:56:36.965Z,67.06
2023-02-07T03:59:05.534Z,70.27
2023-02-07T04:01:33.695Z,71.67
2023-02-07T04:04:01.997Z,70.64
2023-02-07T04:06:29.975Z,71.15
2023-02-07T04:08:57.886Z,70.11
2023-02-07T04:11:26.107Z,72.44
2023-02-07T04:13:54.224Z,72.54
2023-02-07T04:16:22.227Z,70.47
2023-02-07T04:18:50.568Z,68.73
2023-02-07T04:21:18.634Z,68.75
2023-02-07T04:23:46.533Z,68.90
2023-02-07T04:26:14.834Z,71.29
2023-02-07T04:28:42.769Z,71.62
2023-02-07T04:31:10.758Z,72.48
2023-02-07T04:33:39.076Z,71.78
2023-02-07T04:36:07.420Z,70.45
2023-02-07T04:38:35.485Z,71.90
2023-02-07T04:41:05.530Z,71.63
2023-02-07T04:43:35.764Z,71.87
2023-02-07T04:46:05.852Z,72.07
2023-02-07T04:48:34.452Z,70.92
2023-02-07T04:51:02.597Z,67.57
2023-02-07T04:53:31.044Z,65.80
2023-02-07T04:55:58.972Z,68.15
2023-02-07T04:58:27.033Z,68.26
2023-02-07T05:00:55.550Z,67.77
2023-02-07T05:03:23.527Z,67.21
2023-02-07T05:05:53.763Z,68.63
2023-02-07T05:08:22.935Z,68.91
2023-02-07T05:10:55.271Z,70.31
2023-02-07T05:13:24.952Z,71.51
2023-02-07T05:15:53.024Z,71.75
2023-02-07T05:18:21.600Z,71.15
2023-02-07T05:20:52.289Z,70.85
2023-02-07T05:23:20.709Z,70.65
2023-02-07T05:25:49.489Z,68.96
2023-02-07T05:28:17.906Z,67.68
2023-02-07T05:30:45.948Z,69.12
2023-02-07T05:33:14.029Z,68.38
2023-02-07T05:35:44.581Z,69.10
2023-02-07T05:38:15.228Z,70.20
2023-02-07T05:40:44.587Z,70.07
2023-02-07T05:43:13.435Z,69.70
2023-02-07T05:45:41.706Z,68.23
2023-02-07T05:48:10.275Z,68.69
2023-02-07T05:50:38.261Z,69.18
2023-02-07T05:53:07.902Z,67.49
2023-02-07T05:55:36.571Z,67.24
2023-02-07T05:58:05.240Z,68.69
2023-02-07T06:00:33.390Z,68.15
2023-02-07T06:03:01.862Z,69.73
2023-02-07T06:05:35.841Z,70.10
2023-02-07T06:08:04.669Z,69.09
2023-02-07T06:10:33.329Z,67.55
2023-02-07T06:13:01.365Z,65.43
2023-02-07T06:15:30.050Z,66.72
2023-02-07T06:17:58.039Z,67.15
2023-02-07T06:20:26.058Z,67.26
2023-02-07T06:22:54.412Z,66.73
2023-02-07T06:25:22.418Z,65.76
2023-02-07T06:27:50.344Z,70.31
2023-02-07T06:30:18.963Z,68.40
2023-02-07T06:32:47.101Z,65.75
2023-02-07T06:35:15.273Z,69.89
2023-02-07T06:37:43.677Z,70.73
2023-02-07T06:40:11.875Z,71.88
2023-02-07T06:42:39.810Z,72.00
2023-02-07T06:45:08.691Z,72.85
2023-02-07T06:47:36.666Z,70.76
2023-02-07T06:50:04.964Z,70.42
2023-02-07T06:52:33.386Z,68.64
2023-02-07T06:55:01.283Z,69.35
2023-02-07T06:57:29.204Z,70.07
2023-02-07T06:59:57.515Z,71.04
2023-02-07T07:02:25.532Z,69.75
2023-02-07T07:04:53.457Z,67.48
2023-02-07T07:07:21.755Z,66.12
2023-02-07T07:09:49.876Z,65.43
2023-02-07T07:12:17.790Z,64.62
2023-02-07T07:14:46.095Z,64.94
2023-02-07T07:17:15.487Z,64.67
2023-02-07T07:19:43.545Z,64.60
2023-02-07T07:22:11.893Z,63.55
2023-02-07T07:24:39.886Z,62.87
2023-02-07T07:27:08.010Z,63.18
2023-02-07T07:29:36.291Z,62.39
2023-02-07T07:32:04.371Z,64.45
2023-02-07T07:34:32.280Z,62.24
2023-02-07T07:37:00.551Z,60.27
2023-02-07T07:39:28.640Z,62.32
2023-02-07T07:41:56.666Z,59.46
2023-02-07T07:44:28.934Z,57.97
2023-02-07T07:46:57.434Z,56.76
2023-02-07T07:49:25.431Z,55.64
2023-02-07T07:51:55.752Z,58.07
2023-02-07T07:54:23.787Z,59.23
2023-02-07T07:56:51.802Z,59.22
2023-02-07T07:59:24.234Z,59.23
2023-02-07T08:01:52.552Z,61.17
2023-02-07T08:04:20.812Z,59.45
2023-02-07T08:06:49.039Z,60.24
2023-02-07T08:09:17.181Z,59.91
2023-02-07T08:11:45.471Z,59.36
2023-02-07T08:14:13.535Z,61.89
2023-02-07T08:16:41.462Z,60.02
2023-02-07T08:19:09.771Z,60.64
2023-02-07T08:21:37.664Z,61.61
2023-02-07T08:24:06.036Z,59.66
2023-02-07T08:26:34.282Z,57.53
2023-02-07T08:29:02.261Z,57.32
2023-02-07T08:31:31.799Z,56.95
2023-02-07T08:34:00.401Z,53.42
2023-02-07T08:36:28.325Z,52.99
2023-02-07T08:38:56.304Z,51.44
2023-02-07T08:41:24.646Z,51.04
2023-02-07T08:43:52.529Z,51.67
2023-02-07T08:46:21.764Z,48.69
2023-02-07T08:48:50.073Z,52.91
2023-02-07T08:51:19.450Z,48.73
2023-02-07T08:53:47.433Z,45.54
2023-02-07T08:56:19.804Z,43.67
2023-02-07T08:58:47.745Z,43.56
2023-02-07T09:01:15.847Z,41.23
2023-02-07T09:03:44.324Z,42.07
2023-02-07T09:06:12.383Z,40.72
2023-02-07T09:08:41.744Z,42.04
2023-02-07T09:11:10.064Z,42.74
2023-02-07T09:13:38.163Z,40.37
2023-02-07T09:16:06.206Z,40.79
2023-02-07T09:18:35.123Z,38.40
2023-02-07T09:21:03.854Z,37.48
2023-02-07T09:23:33.407Z,40.08
2023-02-07T09:26:04.124Z,37.77
2023-02-07T09:28:32.622Z,37.23
2023-02-07T09:31:00.740Z,37.81
2023-02-07T09:33:29.995Z,37.35
2023-02-07T09:35:59.855Z,38.66
2023-02-07T09:38:28.605Z,41.01
2023-02-07T09:40:58.254Z,38.27
2023-02-07T09:44:15.891Z,35.12
2023-02-07T09:47:20.400Z,39.52
2023-02-07T09:50:21.545Z,36.19
2023-02-07T09:52:50.995Z,35.92
2023-02-07T09:55:29.114Z,35.86
2023-02-07T09:58:04.254Z,36.15
2023-02-07T10:00:34.951Z,34.23
2023-02-07T10:03:25.970Z,33.65
2023-02-07T10:06:12.698Z,31.91
2023-02-07T10:08:53.838Z,31.04
2023-02-07T10:11:42.963Z,31.25
2023-02-07T10:14:30.183Z,31.14
2023-02-07T10:17:14.105Z,31.45
2023-02-07T10:19:44.852Z,30.29
2023-02-07T10:22:36.813Z,28.31
2023-02-07T10:25:54.948Z,27.29
2023-02-07T10:28:42.617Z,26.15
2023-02-07T10:31:17.564Z,27.54
2023-02-07T10:34:23.326Z,26.55
2023-02-07T10:36:55.882Z,25.09
2023-02-07T10:39:34.848Z,26.70
2023-02-07T10:42:03.288Z,25.94
2023-02-07T10:44:31.368Z,25.12
2023-02-07T10:47:04.685Z,27.82
2023-02-07T10:49:38.893Z,26.03
2023-02-07T10:52:20.926Z,23.46
2023-02-07T10:54:52.246Z,24.91
2023-02-07T10:57:25.408Z,25.96
2023-02-07T11:00:38.189Z,25.85
2023-02-07T11:03:08.978Z,25.38
2023-02-07T11:05:40.297Z,25.24
2023-02-07T11:08:14.815Z,23.01
2023-02-07T11:10:44.979Z,25.28
2023-02-07T11:13:30.720Z,25.49
2023-02-07T11:16:04.886Z,25.89
2023-02-07T11:18:50.879Z,25.13
2023-02-07T11:21:30.872Z,24.80
2023-02-07T11:24:02.069Z,25.62
2023-02-07T11:26:31.388Z,26.21
2023-02-07T11:29:20.405Z,26.91
2023-02-07T11:31:50.293Z,26.77
2023-02-07T11:34:28.775Z,26.23
2023-02-07T11:37:22.115Z,27.16
2023-02-07T11:39:51.531Z,26.46
2023-02-07T11:42:26.424Z,26.68
2023-02-07T11:44:55.845Z,28.73
2023-02-07T11:47:28.762Z,27.33
2023-02-07T11:50:01.785Z,26.48
2023-02-07T11:52:33.330Z,26.15
2023-02-07T11:55:05.893Z,27.90
2023-02-07T11:57:34.940Z,27.21
2023-02-07T12:00:07.018Z,27.22
2023-02-07T12:02:40.917Z,26.60
2023-02-07T12:05:19.305Z,27.33
2023-02-07T12:07:58.855Z,25.42
2023-02-07T12:10:34.333Z,23.50
2023-02-07T12:13:09.124Z,24.82
2023-02-07T12:15:40.632Z,25.62
2023-02-07T12:18:30.421Z,24.96
2023-02-07T12:21:23.017Z,27.78
2023-02-07T12:24:06.062Z,26.61
2023-02-07T12:48:25.202Z,36.19
2023-02-07T12:50:59.918Z,36.19
2023-02-07T12:53:30.960Z,36.87
2023-02-07T12:56:02.964Z,37.48
2023-02-07T12:59:00.202Z,35.94
2023-02-07T13:01:42.705Z,39.15
2023-02-07T13:04:38.986Z,37.13
2023-02-07T13:07:17.322Z,37.58
2023-02-07T13:09:52.410Z,38.92
2023-02-07T13:12:25.676Z,39.65
2023-02-07T13:15:09.670Z,39.10
2023-02-07T13:18:08.323Z,38.96
2023-02-07T13:21:08.998Z,40.91
2023-02-07T13:23:42.535Z,40.58
2023-02-07T13:26:16.247Z,37.68
2023-02-07T13:28:49.239Z,37.68
2023-02-07T13:31:23.449Z,36.49
2023-02-07T13:33:52.897Z,38.58
2023-02-07T13:36:53.416Z,37.45
2023-02-07T13:39:28.602Z,37.09
2023-02-07T13:42:12.243Z,39.03
2023-02-07T13:44:54.288Z,40.49
2023-02-07T13:47:31.827Z,41.46
2023-02-07T13:50:19.043Z,39.61
2023-02-07T13:52:55.464Z,40.49
2023-02-07T13:55:40.680Z,39.59
2023-02-07T13:58:52.688Z,39.66
2023-02-07T14:01:27.045Z,40.42
2023-02-07T14:04:12.041Z,40.30
2023-02-07T14:06:46.825Z,39.65
2023-02-07T14:09:15.747Z,41.53
2023-02-07T14:11:48.274Z,42.98
2023-02-07T14:14:27.620Z,42.44
2023-02-07T14:17:04.307Z,42.12
2023-02-07T14:19:43.118Z,42.20
2023-02-07T14:22:52.664Z,42.09
2023-02-07T14:25:38.821Z,42.38
2023-02-07T14:28:36.598Z,42.33
2023-02-07T14:31:18.155Z,42.96
2023-02-07T14:34:10.325Z,43.06
2023-02-07T14:36:40.465Z,42.42
2023-02-07T14:39:12.090Z,42.48
2023-02-07T14:41:43.620Z,42.35
2023-02-07T14:44:26.243Z,41.18
2023-02-07T14:47:01.489Z,39.69
2023-02-07T14:49:39.778Z,41.26
2023-02-07T14:52:33.481Z,40.39
2023-02-07T14:55:09.158Z,39.19
2023-02-07T14:57:56.386Z,39.29
2023-02-07T15:00:31.701Z,40.93
2023-02-07T15:03:06.377Z,41.27
2023-02-07T15:05:36.845Z,40.01
2023-02-07T15:08:20.703Z,40.99
2023-02-07T15:11:10.548Z,40.87
2023-02-07T15:13:45.594Z,40.57
2023-02-07T15:16:13.518Z,41.11
2023-02-07T15:18:45.488Z,41.53
2023-02-07T15:21:24.336Z,42.27
2023-02-07T15:24:02.350Z,41.74
2023-02-07T15:26:30.529Z,41.10
2023-02-07T15:29:04.734Z,42.15
2023-02-07T15:31:41.597Z,42.49
2023-02-07T15:34:16.826Z,42.17
2023-02-07T15:36:46.503Z,43.48
2023-02-07T15:39:21.621Z,43.30
2023-02-07T15:41:52.006Z,42.35
2023-02-07T15:44:34.287Z,42.62
2023-02-07T15:47:07.235Z,44.25
2023-02-07T15:49:41.161Z,44.45
2023-02-07T15:52:25.293Z,44.64
2023-02-07T15:54:54.969Z,44.95
2023-02-07T15:57:35.192Z,45.57
2023-02-07T16:00:09.752Z,44.95
2023-02-07T16:02:43.458Z,45.82
2023-02-07T16:05:23.399Z,46.18
2023-02-07T16:07:52.050Z,49.32
2023-02-07T16:10:23.994Z,47.59
2023-02-07T16:13:16.049Z,48.66
2023-02-07T16:16:08.413Z,49.45
2023-02-07T16:18:48.472Z,49.66
2023-02-07T16:21:25.353Z,48.64
2023-02-07T16:24:02.265Z,48.41
2023-02-07T16:26:33.199Z,48.79
2023-02-07T16:29:01.196Z,48.96
2023-02-07T16:31:29.326Z,48.73
2023-02-07T16:33:57.750Z,51.05
2023-02-07T16:36:25.765Z,53.13
2023-02-07T16:38:53.786Z,51.04
2023-02-07T16:41:33.752Z,49.63
2023-02-07T16:44:03.634Z,50.15
2023-02-07T16:46:32.532Z,51.65
2023-02-07T16:49:00.750Z,53.01
2023-02-07T16:51:28.934Z,57.19
2023-02-07T16:53:57.266Z,57.33
2023-02-07T16:56:27.598Z,57.72
2023-02-07T16:58:55.585Z,56.44
2023-02-07T17:01:24.129Z,55.43
2023-02-07T17:03:52.098Z,55.07
2023-02-07T17:06:22.657Z,54.34
2023-02-07T17:08:52.196Z,56.25
2023-02-07T17:11:25.369Z,57.09
2023-02-07T17:13:58.346Z,57.10
2023-02-07T17:16:27.707Z,58.82
2023-02-07T17:18:56.127Z,58.29
2023-02-07T17:21:24.161Z,58.80
2023-02-07T17:23:52.106Z,57.93
2023-02-07T17:26:30.201Z,59.25
2023-02-07T17:28:58.570Z,58.89
2023-02-07T17:31:27.279Z,59.63
2023-02-07T17:33:58.421Z,60.29
2023-02-07T17:36:29.122Z,63.57
2023-02-07T17:38:59.248Z,61.08
2023-02-07T17:41:27.636Z,61.02
2023-02-07T17:43:55.570Z,61.02
2023-02-07T17:46:25.656Z,60.68
2023-02-07T17:48:54.692Z,62.90
2023-02-07T17:51:25.000Z,61.23
2023-02-07T17:53:54.254Z,59.46
2023-02-07T17:56:30.444Z,59.98
2023-02-07T17:59:03.110Z,57.73
2023-02-07T18:01:32.135Z,58.99
2023-02-07T18:04:00.608Z,58.87
2023-02-07T18:06:29.887Z,60.42
2023-02-07T18:09:01.148Z,58.57
2023-02-07T18:11:30.598Z,59.51
2023-02-07T18:13:58.571Z,58.51
2023-02-07T18:16:27.366Z,59.70
2023-02-07T18:18:57.269Z,59.60
2023-02-07T18:21:26.650Z,59.89
2023-02-07T18:23:56.614Z,62.86
2023-02-07T18:26:24.660Z,60.93
2023-02-07T18:28:52.681Z,61.41
2023-02-07T18:31:23.665Z,61.94
2023-02-07T18:33:52.678Z,62.60
2023-02-07T18:36:23.289Z,62.45
2023-02-07T18:38:51.416Z,62.18
2023-02-07T18:41:23.593Z,62.21
2023-02-07T18:43:52.564Z,62.43
2023-02-07T18:46:21.922Z,63.05
2023-02-07T18:48:57.457Z,62.54
2023-02-07T18:51:26.396Z,62.61
2023-02-07T18:53:55.252Z,63.36
2023-02-07T18:56:25.116Z,62.10
2023-02-07T18:58:56.877Z,60.93
2023-02-07T19:01:26.558Z,59.55
2023-02-07T19:03:56.558Z,62.68
2023-02-07T19:06:27.059Z,63.31
2023-02-07T19:08:56.079Z,62.78
2023-02-07T19:11:24.646Z,62.64
2023-02-07T19:13:52.926Z,63.29
2023-02-07T19:16:22.911Z,63.30
2023-02-07T19:18:50.951Z,63.61
2023-02-07T19:21:24.049Z,63.67
2023-02-07T19:23:53.303Z,63.31
2023-02-07T19:26:21.643Z,63.34
2023-02-07T19:28:49.694Z,63.65
2023-02-07T19:31:18.464Z,63.70
2023-02-07T19:33:49.970Z,63.50
2023-02-07T19:36:22.337Z,62.89
2023-02-07T19:38:54.050Z,63.17
2023-02-07T19:41:24.146Z,62.80
2023-02-07T19:43:52.234Z,62.81
2023-02-07T19:46:20.608Z,63.51
2023-02-07T19:48:49.743Z,63.82
2023-02-07T19:51:19.285Z,64.77
2023-02-07T19:53:48.544Z,64.00
2023-02-07T19:56:19.201Z,63.69
2023-02-07T19:58:50.402Z,64.01
2023-02-07T20:01:19.737Z,63.42
2023-02-07T20:03:52.218Z,61.68
2023-02-07T20:06:23.610Z,62.37
2023-02-07T20:08:52.121Z,63.84
2023-02-07T20:11:21.362Z,64.32
2023-02-07T20:13:52.485Z,64.96
2023-02-07T20:16:24.451Z,64.79
2023-02-07T20:18:53.094Z,65.69
2023-02-07T20:21:24.437Z,66.34
2023-02-07T20:23:54.526Z,65.94
2023-02-07T20:26:25.944Z,65.61
2023-02-07T20:28:54.579Z,65.61
2023-02-07T20:31:26.784Z,65.33
2023-02-07T20:33:56.159Z,64.75
2023-02-07T20:36:25.365Z,65.43
2023-02-07T20:38:53.398Z,67.15
2023-02-07T20:41:29.727Z,66.16
2023-02-07T20:44:05.044Z,65.87
2023-02-07T20:46:35.478Z,66.39
2023-02-07T20:49:07.180Z,67.30
2023-02-07T20:51:35.391Z,65.81
2023-02-07T20:54:05.534Z,65.67
2023-02-07T20:56:34.617Z,65.68
2023-02-07T20:59:06.861Z,65.00
2023-02-07T21:01:36.557Z,64.58
2023-02-07T21:04:05.958Z,65.37
2023-02-07T21:06:35.140Z,65.75
2023-02-07T21:09:05.794Z,65.70
2023-02-07T21:11:40.857Z,65.72
2023-02-07T21:14:30.762Z,65.39
2023-02-07T21:17:01.659Z,64.61
2023-02-07T21:19:30.026Z,63.93
2023-02-07T21:21:58.757Z,65.03
2023-02-07T21:24:26.959Z,66.73
2023-02-07T21:26:55.720Z,67.87
2023-02-07T21:29:24.702Z,64.16
2023-02-07T21:31:52.806Z,65.24
2023-02-07T21:34:22.502Z,66.15
2023-02-07T21:36:50.728Z,65.26
2023-02-07T21:39:19.246Z,63.74
2023-02-07T21:41:48.368Z,65.53
2023-02-07T21:44:16.498Z,66.14
2023-02-07T21:46:48.714Z,63.41
2023-02-07T21:49:20.881Z,62.40
2023-02-07T21:51:50.144Z,65.61
2023-02-07T21:54:18.707Z,67.14
2023-02-07T21:56:46.806Z,64.44
2023-02-07T21:59:17.067Z,65.16
2023-02-07T22:01:46.720Z,65.21
2023-02-07T22:04:15.698Z,64.21
2023-02-07T22:06:44.832Z,66.23
2023-02-07T22:09:14.504Z,66.14
2023-02-07T22:11:43.159Z,69.02
2023-02-07T22:14:12.494Z,67.77
2023-02-07T22:16:40.807Z,70.06
2023-02-07T22:19:12.494Z,69.12
2023-02-07T22:21:40.713Z,70.94
2023-02-07T22:24:10.299Z,69.55
2023-02-07T22:26:38.693Z,66.59
2023-02-07T22:29:08.120Z,68.77
2023-02-07T22:31:40.181Z,66.58
2023-02-07T22:34:10.992Z,68.78
2023-02-07T22:36:41.167Z,66.52
2023-02-07T22:39:11.154Z,63.73
2023-02-07T22:41:39.214Z,63.98
2023-02-07T22:44:07.120Z,63.33
2023-02-07T22:46:35.644Z,63.49
2023-02-07T22:49:03.703Z,64.70
2023-02-07T22:51:35.624Z,69.67
2023-02-07T22:54:07.752Z,71.02
2023-02-07T22:56:37.454Z,71.82
2023-02-07T22:59:06.435Z,71.76
2023-02-07T23:01:39.628Z,68.06
2023-02-07T23:04:13.455Z,67.02
2023-02-07T23:06:41.976Z,71.76
2023-02-07T23:09:10.531Z,68.12
2023-02-07T23:11:38.823Z,66.15
2023-02-07T23:14:07.340Z,68.42
2023-02-07T23:16:36.509Z,70.52
2023-02-07T23:19:11.490Z,69.09
2023-02-07T23:21:40.375Z,70.10
2023-02-07T23:24:08.764Z,69.91
2023-02-07T23:26:37.501Z,68.92
2023-02-07T23:29:06.227Z,66.33
2023-02-07T23:31:34.661Z,65.29
2023-02-07T23:34:02.710Z,65.60
2023-02-07T23:36:31.144Z,68.62
2023-02-07T23:38:59.113Z,69.81
2023-02-07T23:41:27.105Z,68.40
2023-02-07T23:43:57.019Z,68.84
2023-02-07T23:46:25.057Z,69.09
2023-02-07T23:48:53.565Z,69.08
2023-02-07T23:51:22.150Z,68.24
2023-02-07T23:53:50.120Z,68.18
2023-02-07T23:56:21.176Z,68.32
2023-02-07T23:58:50.260Z,67.57
